createdAt,value
2018-05-31T15:16:31.762Z,47.01
2018-05-31T15:19:18.399Z,43.07
2018-05-31T15:21:58.818Z,39.04
2018-05-31T15:24:40.458Z,36.88
2018-05-31T15:30:22.700Z,35.47
2018-05-31T15:32:54.588Z,35.52
2018-05-31T15:35:30.476Z,34.95
2018-05-31T15:38:05.354Z,38.38
2018-05-31T15:40:37.922Z,42.32
2018-05-31T15:43:12.369Z,43.72
2018-05-31T15:45:45.083Z,45.01
2018-05-31T15:48:17.012Z,45.08
2018-05-31T15:50:49.315Z,47.27
2018-05-31T15:53:21.319Z,47.66
2018-05-31T15:55:56.219Z,48.15
2018-05-31T15:58:27.994Z,48.75
2018-05-31T16:01:00.324Z,49.07
2018-05-31T16:03:32.032Z,48.78
2018-05-31T16:06:03.776Z,48.62
2018-05-31T16:08:43.279Z,49.15
2018-05-31T16:11:15.544Z,49.25
2018-05-31T16:13:47.760Z,50.02
2018-05-31T16:16:38.915Z,49.34
2018-05-31T16:19:11.011Z,50.49
2018-05-31T16:21:46.957Z,50.39
2018-05-31T16:24:22.766Z,50.22
2018-05-31T16:26:54.892Z,50.57
2018-05-31T16:32:34.268Z,51.20
2018-05-31T16:35:06.190Z,51.37
2018-05-31T16:37:38.615Z,51.54
2018-05-31T16:40:17.981Z,50.43
2018-05-31T16:42:50.010Z,49.29
2018-05-31T16:45:23.757Z,49.79
2018-05-31T16:47:56.083Z,49.83
2018-05-31T16:50:28.645Z,51.26
2018-05-31T16:53:00.564Z,50.42
2018-05-31T16:55:34.339Z,49.89
2018-05-31T16:58:06.981Z,50.05
2018-05-31T17:00:39.432Z,49.44
2018-05-31T17:03:18.319Z,49.93
2018-05-31T17:05:50.206Z,51.25
2018-05-31T17:08:22.264Z,50.23
2018-05-31T17:11:11.232Z,51.71
2018-05-31T17:13:43.096Z,51.24
2018-05-31T17:16:15.574Z,52.71
2018-05-31T17:18:53.236Z,51.12
2018-05-31T17:21:25.335Z,52.08
2018-05-31T17:27:11.012Z,52.19
2018-05-31T17:32:52.187Z,53.46
2018-05-31T17:35:24.830Z,52.33
2018-05-31T17:37:56.518Z,52.63
2018-05-31T17:40:35.516Z,52.39
2018-05-31T17:43:12.252Z,52.63
2018-05-31T17:45:44.443Z,52.28
2018-05-31T17:48:25.598Z,53.15
2018-05-31T17:50:57.663Z,53.74
2018-05-31T17:53:30.756Z,53.92
2018-05-31T17:56:02.805Z,53.71
2018-05-31T17:58:37.125Z,54.09
2018-05-31T18:01:08.694Z,55.73
2018-05-31T18:03:40.313Z,56.12
2018-05-31T18:06:12.164Z,56.04
2018-05-31T18:08:44.239Z,55.73
2018-05-31T18:11:16.195Z,55.81
2018-05-31T18:13:48.106Z,55.99
2018-05-31T18:16:21.066Z,56.44
2018-05-31T18:18:52.749Z,56.30
2018-05-31T18:24:19.689Z,56.44
2018-05-31T18:26:51.546Z,56.58
2018-05-31T18:29:23.780Z,56.91
2018-05-31T18:31:56.304Z,57.05
2018-05-31T18:34:29.009Z,57.26
2018-05-31T18:37:01.143Z,58.12
2018-05-31T18:42:31.100Z,59.96
2018-05-31T18:45:03.026Z,59.96
2018-05-31T18:47:35.418Z,60.09
2018-05-31T18:50:08.926Z,60.26
2018-05-31T18:52:41.979Z,60.72
2018-05-31T18:55:13.885Z,61.14
2018-05-31T19:00:51.804Z,61.68
2018-05-31T19:03:23.263Z,62.29
2018-05-31T19:05:55.189Z,61.43
2018-05-31T19:08:32.489Z,60.81
2018-05-31T19:11:11.389Z,61.96
2018-05-31T19:14:13.986Z,61.56
2018-05-31T19:16:46.431Z,62.52
2018-05-31T19:19:22.106Z,63.12
2018-05-31T19:21:56.666Z,63.00
2018-05-31T19:24:35.102Z,63.52
2018-05-31T19:27:07.215Z,62.41
2018-05-31T19:29:40.100Z,62.91
2018-05-31T19:32:12.694Z,62.72
2018-05-31T19:34:43.874Z,62.71
2018-05-31T19:37:15.205Z,63.01
2018-05-31T19:39:48.325Z,62.95
2018-05-31T19:42:24.653Z,63.64
2018-05-31T19:45:31.394Z,64.53
2018-05-31T19:49:09.787Z,64.05
2018-05-31T19:51:45.381Z,62.86
2018-05-31T19:54:16.822Z,62.58
2018-05-31T19:56:49.403Z,62.30
2018-05-31T20:01:30.366Z,63.06
2018-05-31T20:04:01.693Z,64.55
2018-05-31T20:06:38.007Z,65.32
2018-05-31T20:09:10.090Z,65.51
2018-05-31T20:11:42.740Z,66.03
2018-05-31T20:14:16.826Z,65.90
2018-05-31T20:16:48.420Z,66.06
2018-05-31T20:19:36.595Z,66.88
2018-05-31T20:22:25.899Z,67.15
2018-05-31T20:25:32.856Z,67.70
2018-05-31T20:28:04.467Z,68.31
2018-05-31T20:30:37.088Z,68.09
2018-05-31T20:33:08.564Z,68.30
2018-05-31T20:35:40.423Z,68.09
2018-05-31T20:38:22.900Z,67.65
2018-05-31T20:40:54.260Z,67.76
2018-05-31T20:43:25.651Z,68.02
2018-05-31T20:46:16.661Z,68.13
2018-05-31T20:48:51.601Z,68.52
2018-05-31T20:51:23.692Z,68.74
2018-05-31T20:53:56.765Z,68.90
2018-05-31T20:56:28.060Z,69.71
2018-05-31T21:01:53.866Z,69.28
2018-05-31T21:20:05.688Z,69.24
2018-05-31T21:22:48.969Z,69.31
2018-05-31T21:25:21.003Z,69.35
2018-05-31T21:36:33.285Z,72.98
2018-05-31T21:55:02.716Z,79.43
2018-05-31T22:00:42.877Z,84.10
2018-05-31T22:03:17.391Z,82.62
2018-05-31T22:05:52.088Z,82.77
2018-05-31T22:08:26.096Z,82.96
2018-05-31T22:10:58.718Z,89.84
2018-05-31T22:20:22.630Z,90.43
2018-05-31T22:22:54.740Z,88.53
2018-05-31T22:25:25.973Z,88.77
2018-05-31T22:27:57.146Z,88.48
2018-05-31T22:30:28.312Z,89.19
2018-05-31T22:32:59.792Z,89.19
2018-05-31T22:38:48.294Z,89.61
2018-05-31T22:41:20.704Z,89.76
2018-05-31T22:43:52.833Z,89.74
2018-05-31T22:52:34.657Z,89.54
2018-05-31T22:57:27.452Z,89.53
2018-05-31T23:00:02.431Z,89.06
2018-05-31T23:05:36.015Z,88.93
2018-05-31T23:08:07.276Z,89.51
2018-05-31T23:10:38.860Z,89.68
2018-05-31T23:13:10.165Z,89.95
2018-05-31T23:15:41.574Z,90.31
2018-05-31T23:18:12.988Z,90.57
2018-05-31T23:20:45.597Z,90.62
2018-05-31T23:23:16.864Z,90.77
2018-05-31T23:25:47.978Z,90.77
2018-05-31T23:31:09.301Z,91.12
2018-05-31T23:36:39.587Z,90.83
2018-05-31T23:39:11.000Z,90.79
2018-05-31T23:41:42.760Z,89.99
2018-05-31T23:47:28.682Z,89.02
2018-05-31T23:53:03.901Z,89.53
2018-05-31T23:58:43.763Z,89.40
